Time;durP1;ratioP1;P1;durP2;ratioP2;P2;SDS_P1;SDS_P2;PMS_P1;PMS_P2;Temp;Humidity;BMP_temperature;BMP_pressure;BME280_temperature;BME280_humidity;BME280_pressure;Samples;Min_cycle;Max_cycle;Signal;HPM_P1;HPM_P2
2020/12/28 00:01:59;;;;;;;7.53;4.32;;;;;;;7.59;75.06;93739.59;4184151;28;20044;-70
2020/12/28 00:04:00;;;;;;;8.80;4.88;;;;;;;7.61;75.61;93721.19;4175326;28;20067;-70
2020/12/28 00:06:01;;;;;;;5.30;3.33;;;;;;;7.53;75.85;93708.19;4176327;28;20082;-70
2020/12/28 00:08:02;;;;;;;7.50;4.50;;;;;;;7.64;76.00;93726.06;4193123;28;20053;-70
2020/12/28 00:10:05;;;;;;;6.97;4.43;;;;;;;7.79;76.30;93750.50;4193971;28;20515;-69
2020/12/28 00:12:07;;;;;;;5.82;3.58;;;;;;;7.90;76.24;93767.59;4192455;28;20059;-74
2020/12/28 00:14:08;;;;;;;5.68;3.45;;;;;;;8.02;75.34;93764.63;4191950;28;20052;-70
2020/12/28 00:16:14;;;;;;;5.35;3.60;;;;;;;8.02;75.45;93764.63;4176163;28;20179;-71
2020/12/28 00:18:15;;;;;;;4.50;3.05;;;;;;;7.82;75.04;93749.34;4192888;28;20113;-70
2020/12/28 00:20:17;;;;;;;5.18;2.90;;;;;;;7.72;75.09;93730.44;4194163;28;20048;-72
2020/12/28 00:22:18;;;;;;;6.22;3.80;;;;;;;7.79;75.34;93747.88;4193574;28;20067;-69
2020/12/28 00:24:19;;;;;;;5.05;3.13;;;;;;;7.88;76.08;93753.91;4192900;28;20059;-71
2020/12/28 00:26:21;;;;;;;4.13;2.92;;;;;;;7.89;75.45;93739.88;4193713;28;20147;-72
2020/12/28 00:28:22;;;;;;;5.57;3.40;;;;;;;7.92;74.92;93733.53;4193338;28;20412;-68
2020/12/28 00:30:23;;;;;;;3.88;2.40;;;;;;;7.92;74.72;93733.53;4192820;28;20049;-68
2020/12/28 00:32:24;;;;;;;5.60;2.67;;;;;;;7.93;74.75;93737.75;4192742;28;20051;-71
2020/12/28 00:34:26;;;;;;;3.75;2.28;;;;;;;7.97;74.43;93736.44;4191985;28;20063;-72
2020/12/28 00:36:28;;;;;;;4.38;2.33;;;;;;;8.03;75.02;93725.34;4193443;28;20048;-68
2020/12/28 00:38:29;;;;;;;3.90;2.58;;;;;;;8.00;74.82;93718.69;4191244;28;20777;-69
2020/12/28 00:40:30;;;;;;;4.07;2.47;;;;;;;8.05;75.16;93726.00;4193019;28;20056;-71
2020/12/28 00:42:31;;;;;;;5.20;2.58;;;;;;;8.02;75.87;93722.91;4192073;28;20523;-70
2020/12/28 00:44:33;;;;;;;4.30;2.38;;;;;;;7.91;74.81;93717.03;4175513;28;20052;-70
2020/12/28 00:46:35;;;;;;;4.70;2.78;;;;;;;7.85;75.24;93717.75;4175288;28;20083;-69
2020/12/28 00:48:36;;;;;;;4.50;2.70;;;;;;;7.89;75.77;93734.66;4192858;28;20048;-70
2020/12/28 00:50:37;;;;;;;5.10;3.10;;;;;;;7.95;75.58;93738.41;4193124;28;20052;-69
2020/12/28 00:52:38;;;;;;;6.47;3.45;;;;;;;7.97;75.91;93723.41;4192432;28;20636;-69
2020/12/28 00:54:39;;;;;;;6.25;3.83;;;;;;;8.01;75.78;93727.31;4192406;28;20143;-70
2020/12/28 00:56:41;;;;;;;8.07;3.72;;;;;;;8.07;75.63;93728.44;4192415;28;20052;-70
2020/12/28 00:58:42;;;;;;;7.22;4.35;;;;;;;8.09;75.40;93727.28;4190254;28;20060;-70
2020/12/28 01:00:43;;;;;;;6.72;4.05;;;;;;;8.14;75.66;93732.00;4173111;28;20049;-69
2020/12/28 01:02:44;;;;;;;6.72;4.40;;;;;;;8.15;75.59;93734.44;4191661;28;20144;-69
2020/12/28 01:04:45;;;;;;;7.35;4.25;;;;;;;8.17;74.89;93731.66;4196504;28;20075;-69
2020/12/28 01:06:47;;;;;;;5.75;4.13;;;;;;;7.92;75.08;93743.97;4193562;28;20102;-69
2020/12/28 01:08:48;;;;;;;6.05;3.55;;;;;;;7.50;77.01;93751.00;4191653;28;20118;-70
2020/12/28 01:10:50;;;;;;;5.72;3.33;;;;;;;7.40;76.97;93745.16;4175124;28;20476;-70
2020/12/28 01:12:51;;;;;;;10.63;4.10;;;;;;;7.45;76.68;93749.88;4191106;28;20486;-69
2020/12/28 01:14:52;;;;;;;7.38;3.70;;;;;;;7.52;76.37;93745.63;4191058;28;20051;-69
2020/12/28 01:16:53;;;;;;;6.88;4.55;;;;;;;7.44;76.46;93743.03;4192009;28;20059;-70
2020/12/28 01:18:55;;;;;;;8.45;5.18;;;;;;;7.59;76.49;93731.78;4197433;28;20055;-69
2020/12/28 01:20:56;;;;;;;9.38;5.55;;;;;;;7.44;77.26;93733.41;4194118;28;20362;-70
2020/12/28 01:22:57;;;;;;;10.38;6.35;;;;;;;7.52;77.59;93743.81;4173614;28;20047;-71
2020/12/28 01:24:58;;;;;;;11.57;6.28;;;;;;;7.62;77.76;93745.47;4174505;28;20440;-70
2020/12/28 01:26:59;;;;;;;8.45;6.15;;;;;;;7.69;77.06;93747.25;4174013;28;20485;-68
2020/12/28 01:29:01;;;;;;;8.95;6.35;;;;;;;7.61;77.01;93744.63;4204420;28;20067;-68
2020/12/28 01:31:02;;;;;;;8.98;6.03;;;;;;;7.56;77.64;93749.53;4180016;28;20476;-71
2020/12/28 01:33:04;;;;;;;9.20;6.43;;;;;;;7.64;77.86;93746.94;4182536;28;20080;-70
2020/12/28 01:35:05;;;;;;;10.00;7.15;;;;;;;7.74;77.64;93747.56;4192274;28;20167;-72
2020/12/28 01:37:07;;;;;;;8.68;5.57;;;;;;;7.82;77.53;93745.94;4191209;28;20050;-70
2020/12/28 01:39:08;;;;;;;9.45;6.30;;;;;;;7.88;76.47;93743.47;4174662;28;20080;-68
2020/12/28 01:41:09;;;;;;;9.88;6.55;;;;;;;7.93;76.48;93742.97;4192056;28;20048;-70
2020/12/28 01:43:11;;;;;;;10.30;6.88;;;;;;;7.88;76.39;93738.25;4191644;28;20427;-69
2020/12/28 01:45:12;;;;;;;10.63;7.03;;;;;;;7.83;76.19;93729.28;4191934;28;20136;-68
2020/12/28 01:47:14;;;;;;;10.32;7.40;;;;;;;7.77;76.44;93726.38;4191945;28;20052;-70
2020/12/28 01:49:15;;;;;;;10.27;7.30;;;;;;;7.79;76.85;93736.66;4173386;28;20060;-70
2020/12/28 01:51:17;;;;;;;9.40;7.10;;;;;;;7.86;76.59;93734.19;4174006;28;20057;-69
2020/12/28 01:53:19;;;;;;;9.45;6.75;;;;;;;7.86;77.04;93728.97;4173176;28;20059;-70
2020/12/28 01:55:20;;;;;;;9.73;6.55;;;;;;;7.88;76.73;93716.59;4157976;28;20283;-68
2020/12/28 01:57:21;;;;;;;9.30;6.28;;;;;;;7.90;76.57;93714.63;4173633;28;20057;-69
2020/12/28 01:59:23;;;;;;;9.50;6.65;;;;;;;7.96;76.82;93721.78;4190760;28;20048;-68
2020/12/28 02:01:25;;;;;;;10.98;6.57;;;;;;;8.00;76.19;93721.28;4171923;28;20052;-70
2020/12/28 02:03:27;;;;;;;10.32;6.97;;;;;;;8.00;75.96;93712.63;4172640;28;20064;-69
2020/12/28 02:05:28;;;;;;;8.93;6.30;;;;;;;7.93;76.80;93709.06;4189855;28;20477;-69
2020/12/28 02:07:31;;;;;;;9.32;6.20;;;;;;;7.63;77.62;93708.00;4181788;28;20049;-68
2020/12/28 02:09:32;;;;;;;11.82;6.80;;;;;;;7.49;78.20;93701.66;4173681;28;20056;-68
2020/12/28 02:11:33;;;;;;;11.82;6.32;;;;;;;7.54;77.81;93697.56;4191013;28;20063;-67
2020/12/28 02:13:34;;;;;;;11.13;6.13;;;;;;;7.59;77.62;93697.91;4190292;28;20048;-67
2020/12/28 02:15:36;;;;;;;7.88;5.65;;;;;;;7.65;77.58;93706.03;4191569;28;20075;-69
2020/12/28 02:17:37;;;;;;;9.30;6.20;;;;;;;7.71;76.89;93708.78;4174126;28;20045;-68
2020/12/28 02:19:38;;;;;;;9.75;6.35;;;;;;;7.40;78.16;93708.69;4173067;28;20056;-68
2020/12/28 02:21:40;;;;;;;9.73;6.25;;;;;;;6.93;79.32;93704.91;4191522;28;20060;-70
2020/12/28 02:23:42;;;;;;;9.27;7.00;;;;;;;6.77;80.02;93702.28;4156699;28;20104;-70
2020/12/28 02:25:44;;;;;;;10.70;6.97;;;;;;;6.85;79.29;93715.31;4174173;28;20122;-69
2020/12/28 02:27:45;;;;;;;10.27;6.80;;;;;;;6.98;79.73;93714.84;4189818;28;20056;-69
2020/12/28 02:29:46;;;;;;;9.20;6.28;;;;;;;7.05;79.04;93710.59;4189424;28;20090;-70
2020/12/28 02:31:47;;;;;;;9.90;6.70;;;;;;;6.93;78.76;93715.31;4189713;28;20147;-70
2020/12/28 02:33:49;;;;;;;11.90;6.82;;;;;;;6.84;79.40;93703.28;4162240;28;20054;-70
2020/12/28 02:35:50;;;;;;;10.98;7.57;;;;;;;6.71;80.15;93702.91;4173271;28;20180;-69
2020/12/28 02:37:51;;;;;;;10.73;7.10;;;;;;;6.83;79.76;93712.06;4181090;28;20228;-68
2020/12/28 02:39:53;;;;;;;11.82;7.38;;;;;;;6.96;79.32;93709.78;4181398;28;21518;-73
2020/12/28 02:41:54;;;;;;;10.23;7.65;;;;;;;6.78;79.71;93716.94;4182642;28;20049;-70
2020/12/28 02:43:55;;;;;;;13.10;7.65;;;;;;;6.93;80.10;93722.34;4192941;28;20048;-69
2020/12/28 02:45:57;;;;;;;11.35;7.20;;;;;;;7.08;79.71;93725.13;4173150;28;20041;-70
2020/12/28 02:47:58;;;;;;;11.93;6.93;;;;;;;7.21;79.37;93729.84;4188470;28;20117;-68
2020/12/28 02:49:59;;;;;;;11.68;6.93;;;;;;;7.29;78.88;93733.28;4186285;28;20068;-69
2020/12/28 02:52:00;;;;;;;9.43;6.78;;;;;;;7.36;78.56;93729.03;4185340;28;20140;-70
2020/12/28 02:54:02;;;;;;;10.07;7.38;;;;;;;7.19;78.95;93727.41;4184134;28;20403;-68
2020/12/28 02:56:03;;;;;;;11.10;7.88;;;;;;;6.81;80.47;93727.00;4174495;28;20142;-68
2020/12/28 02:58:04;;;;;;;11.98;7.93;;;;;;;6.83;80.31;93734.66;4191107;28;20048;-69
2020/12/28 03:00:05;;;;;;;12.18;9.07;;;;;;;6.89;80.30;93724.44;4204173;28;20055;-68
2020/12/28 03:02:07;;;;;;;15.07;10.35;;;;;;;6.81;80.39;93747.84;4175488;28;20526;-69
2020/12/28 03:04:08;;;;;;;13.73;9.30;;;;;;;6.90;80.09;93744.28;4191279;28;20514;-70
2020/12/28 03:06:10;;;;;;;13.65;9.73;;;;;;;6.98;79.58;93746.91;4205770;28;20052;-77
2020/12/28 03:08:11;;;;;;;13.75;9.82;;;;;;;7.06;79.52;93745.28;4193769;28;20302;-76
2020/12/28 03:10:14;;;;;;;14.85;9.70;;;;;;;7.17;79.28;93737.97;4194498;28;20049;-76
2020/12/28 03:12:15;;;;;;;13.88;8.93;;;;;;;7.31;79.26;93733.09;4176160;28;20037;-78
2020/12/28 03:14:16;;;;;;;12.50;9.23;;;;;;;7.22;79.13;93716.63;4202255;28;20050;-77
2020/12/28 03:16:17;;;;;;;14.65;9.88;;;;;;;7.15;79.50;93720.88;4188790;28;20102;-78
2020/12/28 03:18:18;;;;;;;13.63;10.25;;;;;;;7.23;79.63;93725.25;4177157;28;20041;-77
2020/12/28 03:20:20;;;;;;;12.77;9.80;;;;;;;7.34;79.84;93730.97;4194044;28;20514;-77
2020/12/28 03:22:21;;;;;;;13.82;9.93;;;;;;;7.30;79.19;93713.22;4176185;28;20037;-76
2020/12/28 03:24:22;;;;;;;17.25;10.55;;;;;;;7.33;79.08;93705.88;4201376;28;20154;-76
2020/12/28 03:26:24;;;;;;;14.63;10.40;;;;;;;7.38;79.17;93727.06;4201055;28;20151;-78
2020/12/28 03:28:42;;;;;;;13.07;9.90;;;;;;;7.43;79.38;93713.53;4193351;28;20172;-70
2020/12/28 03:30:43;;;;;;;13.60;9.90;;;;;;;7.37;78.99;93709.00;4187123;28;20060;-69
2020/12/28 03:32:45;;;;;;;14.85;9.30;;;;;;;7.39;79.64;93710.44;4200221;28;20052;-69
2020/12/28 03:34:54;;;;;;;11.88;9.13;;;;;;;7.47;79.37;93725.28;4203141;28;20472;-69
2020/12/28 03:36:55;;;;;;;12.98;9.48;;;;;;;7.56;78.69;93726.09;4179284;28;20109;-70
2020/12/28 03:38:57;;;;;;;11.50;8.45;;;;;;;7.57;78.49;93714.66;4192425;28;20102;-69
2020/12/28 03:40:58;;;;;;;11.23;8.27;;;;;;;7.58;78.27;93716.31;4194859;28;20132;-68
2020/12/28 03:42:59;;;;;;;12.23;9.00;;;;;;;7.56;78.72;93728.69;4159137;28;20049;-68
2020/12/28 03:45:00;;;;;;;13.77;9.45;;;;;;;7.53;78.82;93718.59;4185763;28;20124;-68
2020/12/28 03:47:02;;;;;;;13.65;9.75;;;;;;;7.27;79.47;93703.13;4193497;28;20074;-68
2020/12/28 03:49:03;;;;;;;13.88;10.13;;;;;;;7.04;80.37;93718.59;4176728;28;20572;-70
2020/12/28 03:51:04;;;;;;;12.35;9.10;;;;;;;7.15;80.13;93726.09;4189809;28;20052;-69
2020/12/28 03:53:05;;;;;;;15.20;9.68;;;;;;;7.16;79.82;93722.50;4182252;28;20102;-70
2020/12/28 03:55:07;;;;;;;13.73;9.82;;;;;;;7.26;79.39;93728.38;4201120;28;20044;-69
2020/12/28 03:57:08;;;;;;;13.68;9.63;;;;;;;7.34;78.91;93727.56;4181983;28;20487;-69
2020/12/28 03:59:09;;;;;;;12.90;8.70;;;;;;;7.40;78.71;93724.31;4201564;28;20155;-71
2020/12/28 04:01:11;;;;;;;11.88;8.93;;;;;;;7.44;78.56;93725.59;4206461;28;20048;-70
2020/12/28 04:03:12;;;;;;;13.55;9.38;;;;;;;7.32;78.86;93732.94;4187039;28;20114;-68
2020/12/28 04:05:14;;;;;;;15.48;10.80;;;;;;;7.33;79.17;93738.94;4192936;28;20048;-70
2020/12/28 04:07:15;;;;;;;14.48;10.80;;;;;;;7.22;79.41;93734.88;4201324;28;20090;-70
2020/12/28 04:09:16;;;;;;;13.55;10.73;;;;;;;6.86;80.67;93747.34;4208401;28;20534;-68
2020/12/28 04:11:17;;;;;;;16.25;10.85;;;;;;;7.00;80.89;93745.94;4194786;28;20053;-68
2020/12/28 04:13:19;;;;;;;23.55;16.58;;;;;;;7.11;80.26;93748.22;4190325;28;20476;-69
2020/12/28 04:15:20;;;;;;;15.93;11.80;;;;;;;7.16;79.45;93740.72;4181875;28;20372;-70
2020/12/28 04:17:21;;;;;;;15.00;11.00;;;;;;;7.11;79.54;93740.41;4200470;28;20048;-69
2020/12/28 04:19:22;;;;;;;14.27;10.52;;;;;;;7.16;79.60;93751.97;4193739;28;20061;-70
2020/12/28 04:21:23;;;;;;;13.88;10.65;;;;;;;7.22;79.69;93741.88;4192641;28;20060;-69
2020/12/28 04:23:25;;;;;;;13.68;10.35;;;;;;;7.26;79.35;93740.59;4179417;28;20427;-79
2020/12/28 04:25:27;;;;;;;14.32;10.90;;;;;;;7.31;79.04;93739.13;4181708;28;20056;-78
2020/12/28 04:27:28;;;;;;;13.05;10.13;;;;;;;7.26;79.34;93741.38;4188912;28;20563;-78
2020/12/28 04:29:30;;;;;;;14.88;10.50;;;;;;;7.02;80.00;93734.38;4192913;28;20052;-79
2020/12/28 04:31:31;;;;;;;14.57;10.43;;;;;;;7.04;80.11;93742.03;4193300;28;20048;-77
2020/12/28 04:33:32;;;;;;;15.77;9.73;;;;;;;7.11;80.31;93737.81;4194355;28;20125;-76
2020/12/28 04:35:33;;;;;;;12.40;10.18;;;;;;;7.21;79.51;93742.88;4175958;28;20045;-77
2020/12/28 04:37:34;;;;;;;15.60;9.50;;;;;;;7.31;79.41;93740.91;4195949;28;20051;-78
2020/12/28 04:39:36;;;;;;;12.38;9.18;;;;;;;7.29;78.90;93742.84;4178967;28;20194;-77
2020/12/28 04:41:37;;;;;;;13.15;9.48;;;;;;;7.05;79.18;93744.47;4192828;28;20109;-77
2020/12/28 04:43:38;;;;;;;13.63;9.15;;;;;;;6.82;80.31;93757.28;4169158;28;20052;-78
2020/12/28 04:45:40;;;;;;;11.68;9.30;;;;;;;6.82;79.97;93753.84;4189498;28;20178;-78
2020/12/28 04:47:41;;;;;;;12.02;9.43;;;;;;;6.92;80.19;93764.94;4192252;28;20060;-78
2020/12/28 04:49:47;;;;;;;12.75;10.00;;;;;;;7.06;79.70;93764.34;4176351;28;20425;-76
2020/12/28 04:51:50;;;;;;;13.45;9.82;;;;;;;7.16;79.43;93759.78;4175419;28;20130;-77
2020/12/28 04:53:52;;;;;;;13.60;10.02;;;;;;;7.28;79.18;93772.50;4175709;28;20048;-78
2020/12/28 04:55:53;;;;;;;11.82;9.18;;;;;;;7.19;78.74;93758.66;4194153;28;20056;-78
2020/12/28 04:57:55;;;;;;;14.13;9.25;;;;;;;7.14;78.97;93761.75;4204978;28;20492;-76
2020/12/28 04:59:56;;;;;;;12.82;9.75;;;;;;;7.18;79.16;93770.88;4187597;28;20061;-76
2020/12/28 05:01:58;;;;;;;13.88;9.00;;;;;;;7.27;78.72;93774.28;4184087;28;20513;-79
2020/12/28 05:03:59;;;;;;;75.63;47.03;;;;;;;7.39;78.97;93759.16;4193531;28;20475;-77
2020/12/28 05:06:00;;;;;;;28.08;19.30;;;;;;;7.44;78.37;93763.88;4173997;28;20052;-77
2020/12/28 05:08:04;;;;;;;13.88;10.38;;;;;;;7.45;77.90;93770.72;4175710;28;20107;-76
2020/12/28 05:10:06;;;;;;;12.40;9.13;;;;;;;7.53;77.49;93770.72;4192286;28;20044;-77
2020/12/28 05:12:07;;;;;;;12.55;8.88;;;;;;;7.52;77.23;93776.91;4191272;28;20395;-77
2020/12/28 05:14:15;;;;;;;12.10;9.25;;;;;;;7.48;78.24;93784.22;4184476;28;20044;-78
2020/12/28 05:16:17;;;;;;;11.50;8.60;;;;;;;7.49;77.68;93790.28;4193944;28;20056;-80
2020/12/28 05:18:19;;;;;;;13.45;7.90;;;;;;;7.38;77.03;93784.41;4173946;28;20053;-77
2020/12/28 05:20:24;;;;;;;10.30;7.93;;;;;;;7.24;77.51;93777.22;4192608;28;20474;-77
2020/12/28 05:22:28;;;;;;;11.48;8.27;;;;;;;7.09;78.17;93789.22;4189373;28;20090;-78
2020/12/28 05:24:30;;;;;;;11.95;8.95;;;;;;;6.94;78.66;93800.25;4192440;28;20044;-77
2020/12/28 05:26:32;;;;;;;13.05;8.95;;;;;;;6.75;79.17;93816.16;4191422;28;20052;-78
2020/12/28 05:28:36;;;;;;;11.40;8.48;;;;;;;6.83;79.34;93824.00;4173482;28;20211;-79
2020/12/28 05:30:44;;;;;;;12.93;8.40;;;;;;;6.56;79.87;93809.44;4164194;28;20061;-79
2020/12/28 05:32:47;;;;;;;11.90;7.85;;;;;;;6.57;79.60;93822.25;4174088;28;20100;-78
2020/12/28 05:34:48;;;;;;;12.35;8.60;;;;;;;6.55;79.77;93813.78;4174761;28;20481;-78
2020/12/28 05:36:53;;;;;;;12.27;8.63;;;;;;;6.73;79.88;93818.09;4189204;28;20110;-76
2020/12/28 05:38:56;;;;;;;11.07;8.02;;;;;;;6.90;79.42;93822.38;4189920;28;20045;-77
2020/12/28 05:41:02;;;;;;;13.98;8.57;;;;;;;6.75;79.17;93824.78;4174329;28;20102;-76
2020/12/28 05:43:04;;;;;;;10.50;7.80;;;;;;;6.40;81.04;93823.16;4191071;28;20058;-77
2020/12/28 05:45:08;;;;;;;12.00;8.48;;;;;;;6.26;81.60;93818.53;4183041;28;20076;-77
2020/12/28 05:47:17;;;;;;;12.13;8.93;;;;;;;6.31;81.34;93824.91;4157555;28;20053;-76
2020/12/28 05:49:19;;;;;;;12.05;8.77;;;;;;;6.41;80.79;93829.16;4173462;28;20419;-77
2020/12/28 05:51:21;;;;;;;12.13;8.48;;;;;;;6.54;80.09;93833.00;4170083;28;20447;-77
2020/12/28 05:53:24;;;;;;;10.45;7.47;;;;;;;6.51;79.72;93838.50;4173339;28;20547;-78
2020/12/28 05:55:29;;;;;;;11.60;8.02;;;;;;;6.45;80.34;93831.31;4174722;28;20087;-78
2020/12/28 05:57:31;;;;;;;12.05;7.80;;;;;;;6.50;80.52;93836.06;4170531;28;20053;-79
2020/12/28 05:59:34;;;;;;;10.48;8.27;;;;;;;6.53;79.50;93831.34;4176945;28;20427;-69
2020/12/28 06:01:38;;;;;;;11.68;8.15;;;;;;;6.61;79.50;93821.97;4200683;28;20053;-77
2020/12/28 06:03:42;;;;;;;;;;;;;;;6.76;78.19;93826.41;4174245;28;20056;-77
2020/12/28 06:05:51;;;;;;;8.15;6.32;;;;;;;6.88;77.92;93826.97;4192811;28;20310;-79
2020/12/28 06:07:52;;;;;;;12.48;7.63;;;;;;;7.05;78.31;93837.41;4176354;28;20701;-77
2020/12/28 06:09:56;;;;;;;13.07;8.60;;;;;;;7.16;78.20;93847.53;4162013;28;20045;-77
2020/12/28 06:12:07;;;;;;;;;;;;;;;7.18;77.66;93858.59;4174366;28;20049;-76
2020/12/28 06:14:16;;;;;;;10.60;7.22;;;;;;;7.30;77.32;93869.53;4199636;28;20290;-79
2020/12/28 06:16:24;;;;;;;9.90;7.05;;;;;;;7.42;77.38;93867.44;4200315;28;20048;-78
2020/12/28 06:18:25;;;;;;;12.85;7.57;;;;;;;7.50;76.75;93860.44;4186937;28;20045;-80
2020/12/28 06:20:31;;;;;;;9.82;6.97;;;;;;;7.54;76.45;93856.56;4171854;28;20110;-78
2020/12/28 06:22:33;;;;;;;12.27;7.85;;;;;;;7.63;76.15;93856.56;4191735;28;20409;-77
2020/12/28 06:24:34;;;;;;;10.35;7.53;;;;;;;7.69;75.93;93872.38;4173687;28;20049;-79
2020/12/28 06:26:35;;;;;;;9.85;6.90;;;;;;;7.77;75.41;93882.81;4190743;28;20050;-79
2020/12/28 06:28:36;;;;;;;9.13;6.90;;;;;;;7.79;75.32;93875.66;4173184;28;20195;-78
2020/12/28 06:30:38;;;;;;;12.90;9.77;;;;;;;7.63;75.31;93882.63;4179297;28;20049;-79
2020/12/28 06:32:40;;;;;;;36.88;23.92;;;;;;;7.59;76.22;93872.53;4173254;28;20045;-80
2020/12/28 06:34:44;;;;;;;13.63;10.27;;;;;;;7.83;75.79;93872.69;4192039;28;20044;-78
2020/12/28 06:36:45;;;;;;;12.05;7.88;;;;;;;7.95;74.81;93876.63;4173935;28;20098;-77
2020/12/28 06:38:59;;;;;;;12.32;7.90;;;;;;;8.11;74.51;93879.25;4191086;28;20048;-80
2020/12/28 06:41:00;;;;;;;;;;;;;;;8.23;73.58;93877.09;4188765;28;20048;-77
2020/12/28 06:43:21;;;;;;;9.98;7.05;;;;;;;7.86;73.96;93875.00;4180669;28;19924;-77
2020/12/28 06:45:23;;;;;;;9.45;6.95;;;;;;;7.97;73.96;93892.94;4174280;28;20064;-79
2020/12/28 06:47:30;;;;;;;9.77;7.20;;;;;;;8.02;74.69;93885.41;4191215;28;20056;-81
2020/12/28 06:49:41;;;;;;;9.90;6.95;;;;;;;7.89;74.50;93864.22;4161179;28;20049;-77
2020/12/28 06:51:42;;;;;;;9.00;7.07;;;;;;;7.71;74.85;93861.78;4191445;28;20056;-76
2020/12/28 06:53:51;;;;;;;9.18;6.93;;;;;;;7.73;74.41;93863.25;4192122;28;20048;-78
2020/12/28 06:55:52;;;;;;;11.77;7.57;;;;;;;7.80;74.46;93871.25;4173785;28;20133;-77
2020/12/28 06:58:00;;;;;;;10.55;7.65;;;;;;;7.62;75.05;93879.22;4166329;28;20065;-79
2020/12/28 07:00:03;;;;;;;9.75;7.90;;;;;;;7.71;75.19;93875.63;4191167;28;20406;-79
2020/12/28 07:02:04;;;;;;;9.83;6.87;;;;;;;7.70;74.38;93881.00;4192213;28;20064;-79
2020/12/28 07:04:06;;;;;;;11.77;7.10;;;;;;;7.55;75.29;93857.34;4174235;28;20291;-78
2020/12/28 07:06:07;;;;;;;10.25;7.82;;;;;;;7.15;76.81;93856.31;4189033;28;20040;-77
2020/12/28 07:08:09;;;;;;;12.18;8.63;;;;;;;7.06;77.89;93872.91;4189372;28;20144;-79
2020/12/28 07:10:21;;;;;;;10.02;8.18;;;;;;;7.16;77.75;93873.56;4188645;28;20089;-79
2020/12/28 07:12:22;;;;;;;15.13;11.88;;;;;;;7.03;77.95;93878.41;4189235;28;20047;-79
2020/12/28 07:14:23;;;;;;;14.93;11.02;;;;;;;7.10;77.84;93869.00;4156632;28;20208;-80
2020/12/28 07:16:25;;;;;;;15.85;12.10;;;;;;;7.25;77.51;93869.19;4191234;28;20391;-81
2020/12/28 07:18:26;;;;;;;14.05;10.48;;;;;;;7.26;77.53;93874.25;4174484;28;20049;-79
2020/12/28 07:20:32;;;;;;;13.60;10.52;;;;;;;7.12;77.46;93872.25;4174076;28;20488;-81
2020/12/28 07:22:36;;;;;;;15.27;9.88;;;;;;;7.03;77.74;93870.59;4172938;28;20507;-81
2020/12/28 07:24:37;;;;;;;14.68;11.38;;;;;;;7.05;77.61;93873.88;4173461;28;20060;-80
2020/12/28 07:26:40;;;;;;;15.98;12.82;;;;;;;7.07;78.00;93877.94;4180524;28;20058;-80
2020/12/28 07:28:45;;;;;;;17.02;12.90;;;;;;;6.88;78.67;93880.78;4188729;28;20222;-77
2020/12/28 07:30:48;;;;;;;18.52;12.68;;;;;;;6.70;80.01;93867.88;4181351;28;20073;-79
2020/12/28 07:32:58;;;;;;;15.10;11.88;;;;;;;6.71;79.26;93872.94;4171698;28;20479;-79
2020/12/28 07:35:02;;;;;;;15.48;11.27;;;;;;;6.72;79.39;93871.94;4175633;28;20052;-78
2020/12/28 07:37:04;;;;;;;15.52;10.82;;;;;;;6.63;78.90;93883.28;4173286;28;20363;-79
2020/12/28 07:39:09;;;;;;;15.77;10.65;;;;;;;6.66;78.81;93911.59;4173608;28;20096;-78
2020/12/28 07:41:28;;;;;;;16.05;11.05;;;;;;;6.88;78.11;93920.69;4175785;28;20045;-78
2020/12/28 07:43:30;;;;;;;13.88;10.98;;;;;;;7.06;78.01;93938.00;4173212;28;20486;-83
2020/12/28 07:45:33;;;;;;;14.48;10.45;;;;;;;7.16;77.14;93916.09;4169279;28;20053;-78
2020/12/28 07:47:58;;;;;;;14.35;10.40;;;;;;;6.81;77.61;93888.41;4172145;28;20053;-80
2020/12/28 07:50:01;;;;;;;14.32;9.85;;;;;;;6.60;78.96;93908.81;4166174;28;20048;-79
2020/12/28 07:52:16;;;;;;;17.00;10.77;;;;;;;6.82;78.86;93926.50;4178834;28;20052;-79
2020/12/28 07:54:21;;;;;;;12.95;9.10;;;;;;;7.00;78.33;93923.00;4175916;28;20111;-82
2020/12/28 07:56:26;;;;;;;14.05;10.50;;;;;;;6.95;78.71;93897.44;4177887;28;20155;-79
2020/12/28 07:58:39;;;;;;;12.02;9.40;;;;;;;7.13;78.25;93903.34;4175664;28;20147;-80
2020/12/28 08:00:51;;;;;;;12.35;8.73;;;;;;;7.21;76.99;93891.34;4175899;28;20071;-70
2020/12/28 08:02:55;;;;;;;12.63;8.93;;;;;;;6.91;78.28;93886.50;4175039;28;20055;-69
2020/12/28 08:04:57;;;;;;;11.90;7.70;;;;;;;6.84;78.84;93880.31;4177827;28;20372;-70
2020/12/28 08:06:58;;;;;;;16.63;9.40;;;;;;;6.89;78.72;93893.66;4158626;28;20049;-79
2020/12/28 08:09:01;;;;;;;13.70;8.93;;;;;;;7.09;78.45;93886.41;4169500;28;20076;-77
2020/12/28 08:11:03;;;;;;;11.23;8.02;;;;;;;7.26;77.53;93878.66;4177153;28;20064;-80
2020/12/28 08:13:05;;;;;;;9.57;7.80;;;;;;;7.39;76.69;93871.19;4175151;28;20203;-78
2020/12/28 08:15:06;;;;;;;12.02;8.65;;;;;;;7.57;76.22;93871.03;4164369;28;20056;-79
2020/12/28 08:17:10;;;;;;;9.70;7.30;;;;;;;7.71;75.33;93869.63;4174193;28;20049;-81
2020/12/28 08:19:11;;;;;;;13.48;9.50;;;;;;;7.75;75.11;93870.91;4177576;28;20057;-79
2020/12/28 08:21:13;;;;;;;12.15;8.18;;;;;;;7.83;74.73;93857.06;4177615;28;20436;-70
2020/12/28 08:23:15;;;;;;;12.48;8.73;;;;;;;7.67;74.98;93858.69;4175992;28;20047;-69
2020/12/28 08:25:16;;;;;;;13.90;9.95;;;;;;;7.79;74.63;93857.41;4176783;28;20053;-71
2020/12/28 08:27:17;;;;;;;13.02;9.77;;;;;;;7.90;74.60;93858.88;4175577;28;20509;-69
2020/12/28 08:29:18;;;;;;;13.02;10.27;;;;;;;7.97;74.63;93859.03;4181227;28;20059;-71
2020/12/28 08:31:29;;;;;;;13.32;9.13;;;;;;;8.00;74.25;93859.53;4181569;28;20071;-71
2020/12/28 08:33:31;;;;;;;12.50;9.20;;;;;;;7.81;73.34;93849.41;4150216;28;20054;-71
2020/12/28 08:35:32;;;;;;;13.77;8.07;;;;;;;7.66;72.97;93835.38;4148533;28;20149;-71
2020/12/28 08:37:33;;;;;;;11.30;7.80;;;;;;;7.40;74.30;93841.56;4166529;28;20063;-71
2020/12/28 08:39:35;;;;;;;15.27;8.77;;;;;;;7.51;74.28;93824.81;4157738;28;20053;-69
2020/12/28 08:41:36;;;;;;;12.00;8.15;;;;;;;7.42;74.41;93825.75;4156793;28;20057;-70
2020/12/28 08:43:37;;;;;;;13.48;9.00;;;;;;;7.49;74.57;93832.78;4148731;28;20425;-69
2020/12/28 08:45:38;;;;;;;12.95;8.77;;;;;;;7.65;74.71;93844.19;4149157;28;20167;-70
2020/12/28 08:47:40;;;;;;;13.43;9.43;;;;;;;7.84;74.67;93851.69;4148548;28;20053;-71
2020/12/28 08:49:42;;;;;;;17.00;10.68;;;;;;;7.68;75.35;93836.03;4153567;28;20053;-69
2020/12/28 08:51:43;;;;;;;14.30;10.20;;;;;;;7.83;75.68;93841.41;4149622;28;20053;-69
2020/12/28 08:53:49;;;;;;;14.18;10.82;;;;;;;7.95;74.79;93846.13;4159316;28;20057;-71
2020/12/28 08:55:57;;;;;;;14.38;11.30;;;;;;;8.14;74.62;93852.81;4151735;28;20046;-70
2020/12/28 08:57:59;;;;;;;19.50;14.63;;;;;;;8.27;74.11;93839.25;4146658;28;20265;-70
2020/12/28 09:00:00;;;;;;;18.95;13.63;;;;;;;8.33;73.60;93832.56;4151422;28;20045;-69
2020/12/28 09:02:02;;;;;;;17.73;13.80;;;;;;;8.39;74.13;93824.88;4151315;28;20052;-70
2020/12/28 09:04:03;;;;;;;17.45;11.55;;;;;;;8.40;73.38;93825.69;4155471;28;20464;-70
2020/12/28 09:06:04;;;;;;;17.17;12.15;;;;;;;8.18;73.43;93817.59;4159268;28;20416;-69
2020/12/28 09:08:06;;;;;;;17.33;12.20;;;;;;;7.97;74.74;93827.72;4148435;28;20065;-70
2020/12/28 09:10:07;;;;;;;22.05;13.45;;;;;;;8.08;74.38;93818.75;4156384;28;20049;-72
2020/12/28 09:12:09;;;;;;;18.17;12.80;;;;;;;8.27;74.17;93810.56;4157131;28;20578;-70
2020/12/28 09:14:11;;;;;;;16.20;11.93;;;;;;;8.34;74.06;93818.53;4157911;28;20060;-71
2020/12/28 09:16:12;;;;;;;14.73;11.43;;;;;;;8.35;72.54;93812.34;4159573;28;20084;-71
2020/12/28 09:18:13;;;;;;;15.40;10.00;;;;;;;8.48;71.61;93814.47;4164819;28;20500;-70
2020/12/28 09:20:14;;;;;;;13.02;9.43;;;;;;;8.51;69.58;93820.13;4165310;28;20096;-71
2020/12/28 09:22:15;;;;;;;12.00;8.80;;;;;;;8.52;70.04;93815.75;4159846;28;20058;-69
2020/12/28 09:24:17;;;;;;;13.02;10.32;;;;;;;8.55;70.77;93825.84;4155111;28;20503;-71
2020/12/28 09:26:18;;;;;;;15.73;11.57;;;;;;;8.71;71.35;93830.19;4160790;28;20086;-69
2020/12/28 09:28:19;;;;;;;15.85;11.15;;;;;;;8.79;71.45;93830.16;4168212;28;20469;-69
2020/12/28 09:30:20;;;;;;;14.38;9.40;;;;;;;9.13;70.20;93840.31;4158427;28;20053;-70
2020/12/28 09:32:22;;;;;;;15.15;10.77;;;;;;;9.48;68.91;93842.56;4168150;28;20076;-70
2020/12/28 09:34:23;;;;;;;14.18;10.02;;;;;;;9.63;68.92;93830.34;4190352;28;20064;-70
2020/12/28 09:36:24;;;;;;;14.60;10.35;;;;;;;9.82;67.99;93829.06;4193648;28;20512;-70
2020/12/28 09:38:26;;;;;;;13.32;9.70;;;;;;;9.92;67.23;93815.78;4192959;28;20052;-71